createdAt,value
2019-05-09T00:01:03.964Z,79.92
2019-05-09T00:03:33.598Z,80.15
2019-05-09T00:06:04.642Z,80.31
2019-05-09T00:08:33.627Z,80.38
2019-05-09T00:11:03.679Z,80.33
2019-05-09T00:13:34.153Z,80.41
2019-05-09T00:16:03.808Z,80.28
2019-05-09T00:18:33.719Z,80.09
2019-05-09T00:21:13.326Z,79.98
2019-05-09T00:23:43.714Z,79.97
2019-05-09T00:26:13.536Z,79.97
2019-05-09T00:28:45.675Z,80.12
2019-05-09T00:31:27.175Z,79.88
2019-05-09T00:33:59.065Z,79.78
2019-05-09T00:36:28.165Z,79.75
2019-05-09T00:38:57.275Z,79.79
2019-05-09T00:41:26.386Z,79.79
2019-05-09T00:44:03.375Z,79.71
2019-05-09T00:46:43.111Z,79.72
2019-05-09T00:49:16.926Z,79.57
2019-05-09T00:51:46.043Z,79.54
2019-05-09T00:54:15.197Z,79.52
2019-05-09T00:56:44.309Z,79.08
2019-05-09T00:59:13.646Z,78.51
2019-05-09T01:01:43.665Z,78.33
2019-05-09T01:04:13.628Z,78.39
2019-05-09T01:06:43.495Z,78.35
2019-05-09T01:09:13.675Z,78.09
2019-05-09T01:11:43.958Z,77.95
2019-05-09T01:14:14.216Z,77.88
2019-05-09T01:16:44.148Z,77.99
2019-05-09T01:19:14.192Z,78.16
2019-05-09T01:21:43.958Z,78.25
2019-05-09T01:24:14.410Z,78.26
2019-05-09T01:26:43.696Z,78.67
2019-05-09T01:29:13.748Z,78.89
2019-05-09T01:31:43.716Z,78.98
2019-05-09T01:34:25.583Z,78.96
2019-05-09T01:37:07.724Z,78.74
2019-05-09T01:39:37.451Z,78.73
2019-05-09T01:42:07.082Z,79.03
2019-05-09T01:44:36.204Z,79.28
2019-05-09T01:47:05.327Z,79.15
2019-05-09T01:49:34.491Z,79.06
2019-05-09T01:52:03.812Z,79.19
2019-05-09T01:54:34.597Z,79.47
2019-05-09T01:57:03.704Z,79.58
2019-05-09T01:59:33.899Z,79.44
2019-05-09T02:02:08.287Z,79.43
2019-05-09T02:04:34.900Z,79.46
2019-05-09T02:07:04.431Z,79.59
2019-05-09T02:09:34.446Z,79.77
2019-05-09T02:12:04.164Z,79.75
2019-05-09T02:14:58.272Z,79.75
2019-05-09T02:18:01.309Z,79.99
2019-05-09T02:20:26.290Z,79.99
2019-05-09T02:22:55.423Z,80.17
2019-05-09T02:25:24.556Z,80.15
2019-05-09T02:27:55.226Z,80.45
2019-05-09T02:30:25.459Z,80.40
2019-05-09T02:32:54.913Z,80.48
2019-05-09T02:35:24.052Z,80.37
2019-05-09T02:37:53.196Z,80.39
2019-05-09T02:40:22.321Z,80.40
2019-05-09T02:42:51.422Z,80.33
2019-05-09T02:45:21.241Z,80.31
2019-05-09T02:47:50.344Z,80.31
2019-05-09T02:50:19.823Z,80.20
2019-05-09T02:52:49.023Z,80.26
2019-05-09T02:55:18.650Z,80.29
2019-05-09T02:57:49.469Z,80.33
2019-05-09T03:00:28.876Z,80.41
2019-05-09T03:03:19.553Z,80.51
2019-05-09T03:05:48.753Z,80.55
2019-05-09T03:08:19.165Z,80.38
2019-05-09T03:10:49.144Z,80.22
2019-05-09T03:13:19.232Z,80.18
2019-05-09T03:15:50.418Z,80.13
2019-05-09T03:18:19.564Z,80.15
2019-05-09T03:21:10.374Z,80.22
2019-05-09T03:23:39.603Z,80.40
2019-05-09T03:26:10.407Z,80.50
2019-05-09T03:28:53.566Z,80.48
2019-05-09T03:31:23.338Z,80.26
2019-05-09T03:33:52.467Z,80.40
2019-05-09T03:36:21.583Z,80.46
2019-05-09T03:38:50.676Z,80.46
2019-05-09T03:41:19.780Z,80.57
2019-05-09T03:43:48.890Z,80.73
2019-05-09T03:46:31.035Z,80.87
2019-05-09T03:49:00.952Z,80.76
2019-05-09T03:51:30.088Z,80.56
2019-05-09T03:53:59.217Z,80.44
2019-05-09T03:56:33.149Z,80.41
2019-05-09T03:59:02.259Z,80.35
2019-05-09T04:01:31.377Z,80.43
2019-05-09T04:04:00.511Z,80.31
2019-05-09T04:06:29.918Z,80.36
2019-05-09T04:08:59.064Z,80.28
2019-05-09T04:11:28.202Z,80.13
2019-05-09T04:14:01.954Z,79.95
2019-05-09T04:16:31.097Z,79.76
2019-05-09T04:19:00.211Z,79.64
2019-05-09T04:21:29.343Z,79.56
2019-05-09T04:23:58.682Z,79.64
2019-05-09T04:26:57.446Z,79.58
2019-05-09T04:29:28.422Z,79.51
2019-05-09T04:31:57.593Z,79.60
2019-05-09T04:34:27.510Z,79.64
2019-05-09T04:36:57.581Z,79.69
2019-05-09T04:39:28.336Z,79.68
2019-05-09T04:42:03.423Z,79.63
2019-05-09T04:44:33.973Z,79.64
2019-05-09T04:47:03.784Z,79.71
2019-05-09T04:49:39.284Z,79.68
2019-05-09T04:52:04.039Z,79.54
2019-05-09T04:54:33.155Z,79.55
2019-05-09T04:57:02.281Z,79.64
2019-05-09T04:59:31.388Z,79.69
2019-05-09T05:02:31.678Z,79.73
2019-05-09T05:05:00.877Z,80.09
2019-05-09T05:07:30.027Z,80.28
2019-05-09T05:09:59.164Z,80.56
2019-05-09T05:12:28.336Z,80.49
2019-05-09T05:14:58.097Z,80.52
2019-05-09T05:17:28.276Z,80.63
2019-05-09T05:19:58.785Z,80.57
2019-05-09T05:22:33.721Z,80.55
2019-05-09T05:25:04.330Z,80.61
2019-05-09T05:27:33.451Z,80.50
2019-05-09T05:30:02.546Z,80.39
2019-05-09T05:33:02.923Z,80.32
2019-05-09T05:35:48.475Z,80.11
2019-05-09T05:38:17.793Z,79.83
2019-05-09T05:40:49.693Z,79.66
2019-05-09T05:43:17.870Z,79.62
2019-05-09T05:45:58.456Z,79.26
2019-05-09T05:48:29.784Z,79.25
2019-05-09T05:50:58.948Z,79.04
2019-05-09T05:53:28.088Z,78.79
2019-05-09T05:55:58.062Z,78.73
2019-05-09T05:58:28.179Z,78.22
2019-05-09T06:00:58.876Z,77.74
2019-05-09T06:03:28.405Z,77.52
2019-05-09T06:05:58.498Z,77.51
2019-05-09T06:08:27.981Z,77.77
2019-05-09T06:10:57.714Z,77.09
2019-05-09T06:13:27.582Z,76.72
2019-05-09T06:15:58.658Z,75.47
2019-05-09T06:18:27.952Z,75.00
2019-05-09T06:20:58.343Z,75.44
2019-05-09T06:23:28.326Z,73.86
2019-05-09T06:25:58.750Z,73.08
2019-05-09T06:28:28.330Z,73.28
2019-05-09T06:30:58.531Z,71.67
2019-05-09T06:33:28.608Z,71.35
2019-05-09T06:35:58.894Z,72.66
2019-05-09T06:38:28.463Z,72.43
2019-05-09T06:40:58.210Z,71.65
2019-05-09T06:43:29.788Z,71.58
2019-05-09T06:46:20.916Z,73.01
2019-05-09T06:48:50.084Z,70.71
2019-05-09T06:51:21.355Z,70.39
2019-05-09T06:53:51.680Z,70.73
2019-05-09T06:56:20.811Z,70.37
2019-05-09T06:58:49.960Z,71.00
2019-05-09T07:01:44.064Z,69.17
2019-05-09T07:04:19.692Z,69.59
2019-05-09T07:06:52.704Z,69.51
2019-05-09T07:09:27.830Z,70.82
2019-05-09T07:11:55.609Z,69.36
2019-05-09T07:14:43.628Z,70.23
2019-05-09T07:17:12.769Z,70.52
2019-05-09T07:19:43.923Z,70.38
2019-05-09T07:22:28.063Z,70.58
2019-05-09T07:25:10.472Z,70.27
2019-05-09T07:27:39.062Z,67.62
2019-05-09T07:30:19.397Z,68.20
2019-05-09T07:33:00.935Z,67.21
2019-05-09T07:35:30.031Z,66.61
2019-05-09T07:37:59.179Z,66.85
2019-05-09T07:40:30.728Z,64.70
2019-05-09T07:42:59.221Z,64.14
2019-05-09T07:45:28.348Z,62.53
2019-05-09T07:47:58.363Z,63.37
2019-05-09T07:50:27.926Z,61.17
2019-05-09T07:52:58.144Z,60.62
2019-05-09T07:55:27.621Z,59.54
2019-05-09T07:57:59.156Z,58.84
2019-05-09T08:00:34.416Z,58.10
2019-05-09T08:03:03.521Z,59.18
2019-05-09T08:05:32.825Z,59.93
2019-05-09T08:08:01.959Z,59.75
2019-05-09T08:10:33.205Z,60.67
2019-05-09T08:13:01.981Z,61.47
2019-05-09T08:15:31.097Z,60.69
2019-05-09T08:18:00.285Z,60.17
2019-05-09T08:20:29.431Z,58.48
2019-05-09T08:23:01.873Z,60.19
2019-05-09T08:25:29.430Z,60.24
2019-05-09T08:27:59.010Z,57.94
2019-05-09T08:30:35.326Z,59.11
2019-05-09T08:32:59.870Z,58.82
2019-05-09T08:35:29.302Z,58.87
2019-05-09T08:37:58.641Z,57.50
2019-05-09T08:40:28.564Z,57.25
2019-05-09T08:42:59.207Z,56.49
2019-05-09T08:45:31.314Z,54.58
2019-05-09T08:47:59.303Z,55.15
2019-05-09T08:50:38.662Z,54.20
2019-05-09T08:53:08.184Z,54.12
2019-05-09T08:56:58.159Z,53.32
2019-05-09T08:59:27.700Z,54.17
2019-05-09T09:02:12.258Z,53.51
2019-05-09T09:04:29.438Z,53.42
2019-05-09T09:06:58.813Z,51.30
2019-05-09T09:09:28.630Z,52.29
2019-05-09T09:11:58.459Z,51.39
2019-05-09T09:14:28.039Z,51.84
2019-05-09T09:16:57.699Z,52.36
2019-05-09T09:19:28.056Z,51.75
2019-05-09T09:22:00.475Z,51.05
2019-05-09T09:24:28.487Z,52.51
2019-05-09T09:26:57.788Z,52.57
2019-05-09T09:29:28.395Z,51.46
2019-05-09T09:31:57.818Z,51.36
2019-05-09T09:34:29.842Z,51.35
2019-05-09T09:37:02.990Z,50.89
2019-05-09T09:39:31.266Z,51.68
2019-05-09T09:41:59.879Z,53.03
2019-05-09T09:44:29.106Z,52.75
2019-05-09T09:46:58.357Z,54.61
2019-05-09T09:49:29.308Z,54.54
2019-05-09T09:51:58.500Z,54.70
2019-05-09T09:54:28.227Z,54.59
2019-05-09T09:56:58.485Z,54.32
2019-05-09T10:02:27.914Z,54.05
2019-05-09T10:04:57.350Z,54.57
2019-05-09T10:07:27.922Z,54.60
2019-05-09T10:09:58.382Z,53.88
2019-05-09T10:12:28.584Z,55.32
2019-05-09T10:15:08.354Z,52.52
2019-05-09T10:18:07.482Z,50.99
2019-05-09T10:20:44.352Z,51.49
2019-05-09T10:23:18.800Z,49.32
2019-05-09T10:25:44.534Z,49.26
2019-05-09T10:28:13.694Z,49.95
2019-05-09T10:30:42.809Z,50.17
2019-05-09T10:33:12.057Z,49.80
2019-05-09T10:35:41.179Z,49.56
2019-05-09T10:38:10.363Z,48.99
2019-05-09T10:40:40.398Z,47.14
2019-05-09T10:43:36.862Z,48.19
2019-05-09T10:46:19.276Z,47.24
2019-05-09T10:48:58.431Z,48.96
2019-05-09T10:51:26.772Z,49.21
2019-05-09T10:53:58.497Z,49.56
2019-05-09T10:56:28.017Z,47.12
2019-05-09T10:58:58.422Z,47.20
2019-05-09T11:01:29.525Z,47.37
2019-05-09T11:03:59.287Z,47.92
2019-05-09T11:06:29.003Z,47.72
2019-05-09T11:08:58.794Z,49.10
2019-05-09T11:11:28.588Z,47.80
2019-05-09T11:13:58.959Z,46.87
2019-05-09T11:16:42.340Z,47.60
2019-05-09T11:18:59.168Z,47.27
2019-05-09T11:21:28.959Z,45.88
2019-05-09T11:23:58.705Z,46.61
2019-05-09T11:26:28.757Z,46.84
2019-05-09T11:28:58.746Z,46.82
2019-05-09T11:31:29.620Z,46.78
2019-05-09T11:33:59.129Z,44.95
2019-05-09T11:36:28.249Z,46.08
2019-05-09T11:39:00.360Z,44.27
2019-05-09T11:41:29.695Z,44.63
2019-05-09T11:43:59.719Z,44.88
2019-05-09T11:46:29.124Z,45.02
2019-05-09T11:48:58.773Z,44.94
2019-05-09T11:51:29.372Z,44.61
2019-05-09T11:53:59.595Z,45.47
2019-05-09T11:56:28.807Z,43.70
2019-05-09T11:58:58.198Z,44.49
2019-05-09T12:01:29.326Z,43.71
2019-05-09T12:03:58.267Z,44.19
2019-05-09T12:06:28.997Z,44.12
2019-05-09T12:08:59.067Z,42.73
2019-05-09T12:11:28.912Z,43.93
2019-05-09T12:13:58.487Z,44.97
2019-05-09T12:16:28.081Z,44.15
2019-05-09T12:18:58.344Z,44.22
2019-05-09T12:21:28.494Z,44.14
2019-05-09T12:23:58.565Z,44.85
2019-05-09T12:26:29.106Z,45.40
2019-05-09T12:28:58.804Z,43.20
2019-05-09T12:31:28.857Z,43.38
2019-05-09T12:33:59.403Z,43.02
2019-05-09T12:36:28.994Z,44.13
2019-05-09T12:38:59.108Z,45.06
2019-05-09T12:41:31.593Z,45.66
2019-05-09T12:43:59.573Z,45.09
2019-05-09T12:46:28.746Z,45.63
2019-05-09T12:48:59.125Z,46.12
2019-05-09T12:51:28.758Z,45.82
2019-05-09T12:53:58.201Z,45.34
2019-05-09T12:56:28.494Z,45.46
2019-05-09T12:58:58.149Z,44.75
2019-05-09T13:01:27.482Z,44.59
2019-05-09T13:03:58.257Z,44.28
2019-05-09T13:06:29.504Z,42.81
2019-05-09T13:08:58.872Z,43.47
2019-05-09T13:11:28.220Z,43.00
2019-05-09T13:13:57.422Z,43.45
2019-05-09T13:16:45.475Z,42.59
2019-05-09T13:19:07.586Z,42.29
2019-05-09T13:21:38.984Z,42.11
2019-05-09T13:24:08.330Z,43.15
2019-05-09T13:26:38.579Z,42.48
2019-05-09T13:29:08.269Z,42.90
2019-05-09T13:31:39.281Z,44.04
2019-05-09T13:34:08.370Z,43.02
2019-05-09T13:36:37.522Z,42.94
2019-05-09T13:39:09.609Z,43.77
2019-05-09T13:41:39.699Z,45.08
2019-05-09T13:44:13.715Z,45.32
2019-05-09T13:46:39.766Z,45.70
2019-05-09T13:49:14.821Z,46.04
2019-05-09T13:51:48.504Z,45.86
2019-05-09T13:54:10.734Z,45.30
2019-05-09T13:56:39.885Z,45.61
2019-05-09T13:59:09.023Z,46.29
2019-05-09T14:01:38.304Z,46.52
2019-05-09T14:04:08.089Z,46.74
2019-05-09T14:06:38.690Z,46.78
2019-05-09T14:09:10.278Z,46.61
2019-05-09T14:11:39.915Z,46.58
2019-05-09T14:14:09.054Z,47.22
2019-05-09T14:16:39.098Z,47.34
2019-05-09T14:19:29.979Z,47.03
2019-05-09T14:21:40.074Z,46.51
2019-05-09T14:24:14.375Z,47.64
2019-05-09T14:26:40.384Z,46.72
2019-05-09T14:29:12.853Z,46.69
2019-05-09T14:31:40.669Z,47.16
2019-05-09T14:34:09.932Z,47.57
2019-05-09T14:36:44.442Z,48.30
2019-05-09T14:39:10.730Z,48.32
2019-05-09T14:41:40.069Z,48.88
2019-05-09T14:44:09.638Z,48.27
2019-05-09T14:46:40.595Z,47.61
2019-05-09T14:49:09.973Z,47.97
2019-05-09T14:51:39.208Z,48.86
2019-05-09T14:54:08.618Z,49.02
2019-05-09T14:56:41.796Z,48.88
2019-05-09T14:59:09.753Z,48.82
2019-05-09T15:01:43.626Z,49.64
2019-05-09T15:04:10.251Z,49.20
2019-05-09T15:06:39.909Z,49.21
2019-05-09T15:09:09.511Z,49.10
2019-05-09T15:11:39.776Z,49.11
2019-05-09T15:14:09.618Z,49.30
2019-05-09T15:16:39.447Z,49.69
2019-05-09T15:19:11.245Z,50.08
2019-05-09T15:21:40.765Z,49.84
2019-05-09T15:24:09.981Z,50.38
2019-05-09T15:26:39.323Z,50.07
2019-05-09T15:29:08.533Z,49.91
2019-05-09T15:31:39.259Z,50.35
2019-05-09T15:34:10.236Z,50.12
2019-05-09T15:36:39.556Z,50.95
2019-05-09T15:39:08.905Z,51.03
2019-05-09T15:41:38.679Z,50.95
2019-05-09T15:44:08.625Z,51.31
2019-05-09T15:46:48.573Z,50.82
2019-05-09T15:49:18.437Z,49.96
2019-05-09T15:51:47.940Z,49.96
2019-05-09T15:54:17.896Z,50.54
2019-05-09T15:56:48.358Z,51.10
2019-05-09T15:59:18.438Z,50.61
2019-05-09T16:01:49.227Z,50.31
2019-05-09T16:04:18.619Z,50.09
2019-05-09T16:06:50.393Z,49.51
2019-05-09T16:09:18.681Z,49.68
2019-05-09T16:11:48.505Z,49.30
2019-05-09T16:14:18.598Z,50.09
2019-05-09T16:16:48.053Z,50.16
2019-05-09T16:19:17.291Z,50.77
2019-05-09T16:21:47.736Z,50.60
2019-05-09T16:24:18.739Z,50.19
2019-05-09T16:26:48.741Z,50.18
2019-05-09T16:29:18.209Z,50.32
2019-05-09T16:31:48.094Z,50.94
2019-05-09T16:34:17.982Z,51.50
2019-05-09T16:36:48.178Z,51.54
2019-05-09T16:39:18.079Z,51.69
2019-05-09T16:41:48.402Z,51.91
2019-05-09T16:44:18.616Z,51.94
2019-05-09T16:46:48.592Z,52.16
2019-05-09T16:49:19.866Z,52.08
2019-05-09T16:51:48.892Z,52.19
2019-05-09T16:54:18.347Z,52.79
2019-05-09T16:56:47.588Z,53.06
2019-05-09T16:59:18.890Z,53.07
2019-05-09T17:01:50.345Z,52.37
2019-05-09T17:04:19.406Z,52.32
2019-05-09T17:06:49.720Z,52.39
2019-05-09T17:09:19.102Z,52.12
2019-05-09T17:11:48.358Z,51.94
2019-05-09T17:14:19.250Z,52.41
2019-05-09T17:16:53.053Z,53.01
2019-05-09T17:19:22.019Z,53.07
2019-05-09T17:22:07.629Z,53.14
2019-05-09T17:24:38.022Z,53.01
2019-05-09T17:27:08.688Z,52.77
2019-05-09T17:29:38.451Z,52.66
2019-05-09T17:32:07.936Z,52.85
2019-05-09T17:34:38.089Z,53.18
2019-05-09T17:37:08.026Z,53.04
2019-05-09T17:39:38.611Z,53.77
2019-05-09T17:42:07.878Z,53.72
2019-05-09T17:44:36.994Z,53.93
2019-05-09T17:47:08.286Z,54.45
2019-05-09T17:49:44.246Z,54.23
2019-05-09T17:52:13.639Z,54.22
2019-05-09T17:54:43.059Z,53.88
2019-05-09T17:57:12.250Z,53.71
2019-05-09T17:59:41.426Z,53.98
2019-05-09T18:02:10.585Z,53.92
2019-05-09T18:04:39.806Z,54.02
2019-05-09T18:07:09.042Z,54.20
2019-05-09T18:09:38.230Z,54.33
2019-05-09T18:12:08.471Z,54.65
2019-05-09T18:14:39.412Z,54.62
2019-05-09T18:17:08.730Z,54.99
2019-05-09T18:19:40.821Z,55.12
2019-05-09T18:25:27.765Z,55.35
2019-05-09T18:27:57.507Z,55.46
2019-05-09T18:30:28.892Z,55.70
2019-05-09T18:33:35.246Z,56.06
2019-05-09T18:36:04.401Z,55.97
2019-05-09T18:38:34.677Z,56.29
2019-05-09T18:41:07.135Z,56.54
2019-05-09T18:43:34.929Z,56.61
2019-05-09T18:46:04.058Z,56.56
2019-05-09T18:48:33.183Z,56.73
2019-05-09T18:51:02.358Z,56.86
2019-05-09T18:53:31.554Z,57.18
2019-05-09T18:56:00.721Z,58.52
2019-05-09T18:58:29.869Z,58.98
2019-05-09T19:00:59.001Z,59.37
2019-05-09T19:03:28.209Z,59.62
2019-05-09T19:05:57.351Z,59.98
2019-05-09T19:08:26.484Z,59.92
2019-05-09T19:10:55.660Z,60.08
2019-05-09T19:13:24.783Z,60.16
2019-05-09T19:16:19.221Z,60.17
2019-05-09T19:19:22.519Z,60.41
2019-05-09T19:21:57.753Z,60.55
2019-05-09T19:24:26.998Z,60.53
2019-05-09T19:26:56.187Z,60.61
2019-05-09T19:29:25.326Z,60.75
2019-05-09T19:31:54.659Z,60.97
2019-05-09T19:34:23.848Z,61.20
2019-05-09T19:36:52.993Z,61.51
2019-05-09T19:39:22.935Z,61.79
2019-05-09T19:41:52.139Z,61.93
2019-05-09T19:44:21.252Z,62.20
2019-05-09T19:46:50.471Z,62.28
2019-05-09T19:49:19.708Z,62.33
2019-05-09T19:51:48.912Z,62.50
2019-05-09T19:54:18.222Z,62.71
2019-05-09T19:56:47.471Z,62.74
2019-05-09T19:59:16.596Z,62.93
2019-05-09T20:01:45.735Z,63.29
2019-05-09T20:04:14.895Z,63.49
2019-05-09T20:06:44.003Z,63.85
2019-05-09T20:09:22.388Z,63.86
2019-05-09T20:11:58.182Z,64.12
2019-05-09T20:14:30.873Z,64.33
2019-05-09T20:17:00.024Z,64.44
2019-05-09T20:19:29.169Z,64.64
2019-05-09T20:21:58.359Z,64.87
2019-05-09T20:24:27.518Z,65.19
2019-05-09T20:26:56.697Z,65.43
2019-05-09T20:29:25.858Z,65.48
2019-05-09T20:31:55.146Z,65.67
2019-05-09T20:34:24.300Z,65.80
2019-05-09T20:36:53.487Z,65.89
2019-05-09T20:39:22.818Z,65.94
2019-05-09T20:41:52.114Z,65.98
2019-05-09T20:44:21.439Z,66.18
2019-05-09T20:46:50.780Z,66.17
2019-05-09T20:49:20.183Z,66.37
2019-05-09T20:51:49.608Z,66.43
2019-05-09T20:54:21.386Z,66.56
2019-05-09T20:56:50.125Z,66.62
2019-05-09T20:59:19.489Z,66.71
2019-05-09T21:01:48.788Z,66.77
2019-05-09T21:04:18.148Z,66.90
2019-05-09T21:06:47.502Z,67.48
2019-05-09T21:09:16.843Z,67.51
2019-05-09T21:11:46.199Z,67.65
2019-05-09T21:14:15.516Z,67.71
2019-05-09T21:16:44.838Z,67.91
2019-05-09T21:19:14.155Z,68.01
2019-05-09T21:21:43.466Z,68.05
2019-05-09T21:24:12.914Z,68.02
2019-05-09T21:26:42.506Z,68.22
2019-05-09T21:29:11.853Z,68.22
2019-05-09T21:31:41.172Z,68.50
2019-05-09T21:34:10.495Z,68.76
2019-05-09T21:36:39.638Z,68.79
2019-05-09T21:39:08.794Z,68.84
2019-05-09T21:41:37.970Z,68.69
2019-05-09T21:44:07.260Z,68.73
2019-05-09T21:46:36.406Z,68.83
2019-05-09T21:49:05.535Z,69.04
2019-05-09T21:51:34.687Z,69.19
2019-05-09T21:54:03.806Z,69.45
2019-05-09T21:56:32.969Z,69.47
2019-05-09T21:59:02.136Z,69.42
2019-05-09T22:01:31.317Z,69.38
2019-05-09T22:04:00.535Z,69.46
2019-05-09T22:06:29.776Z,69.62
2019-05-09T22:08:58.924Z,69.57
2019-05-09T22:11:28.052Z,69.77
2019-05-09T22:13:57.211Z,69.75
2019-05-09T22:16:26.383Z,69.76
2019-05-09T22:18:55.545Z,69.80
2019-05-09T22:21:24.688Z,69.90
2019-05-09T22:23:56.735Z,69.93
2019-05-09T22:26:24.691Z,69.97
2019-05-09T22:28:53.958Z,69.97
2019-05-09T22:31:23.082Z,70.07
2019-05-09T22:33:52.246Z,70.20
2019-05-09T22:36:21.374Z,70.45
2019-05-09T22:38:50.529Z,70.40
2019-05-09T22:41:19.691Z,70.39
2019-05-09T22:43:48.803Z,70.39
2019-05-09T22:46:17.934Z,70.42
2019-05-09T22:48:47.096Z,70.55
2019-05-09T22:51:16.364Z,70.98
2019-05-09T22:53:45.488Z,71.15
2019-05-09T22:56:14.669Z,71.21
2019-05-09T22:58:43.755Z,71.33
2019-05-09T23:01:12.886Z,71.25
2019-05-09T23:03:42.050Z,71.07
2019-05-09T23:06:11.187Z,71.05
2019-05-09T23:08:40.308Z,71.15
2019-05-09T23:11:09.456Z,71.29
2019-05-09T23:13:53.857Z,71.30
2019-05-09T23:16:25.161Z,71.33
2019-05-09T23:18:55.024Z,71.44
2019-05-09T23:21:26.117Z,71.45
2019-05-09T23:24:01.283Z,71.47
2019-05-09T23:26:30.456Z,71.30
2019-05-09T23:28:59.675Z,71.18
2019-05-09T23:31:53.789Z,71.25
2019-05-09T23:34:22.929Z,71.22
2019-05-09T23:36:52.069Z,71.74
2019-05-09T23:39:26.058Z,71.89
2019-05-09T23:41:55.176Z,71.80
2019-05-09T23:44:25.084Z,71.85
2019-05-09T23:46:54.215Z,72.19
2019-05-09T23:49:23.402Z,72.23
2019-05-09T23:51:52.561Z,72.19
2019-05-09T23:54:46.661Z,72.06
2019-05-09T23:57:29.263Z,72.07
